Brighton, MI

4:28 PM EDT on September 02, 2015 (GMT -0400)
Linwood | | Change Station
CLOSE
Current Station
Personal Weather Station
Location: Hamburg, MI
Elevation: 902 ft
Nearby Weather Stations

Elev 902 ft 42.47 °N, 83.80 °W | Updated 2 minutes ago

Partly Cloudy
Partly Cloudy
89.3 °F
Feels Like 98 °F
N
3.0
Wind Variable Wind from West
Gusts 9.0 mph

Today
High -- | Low -- °F
--% Chance of Precip.
Yesterday
High -- | Low -- °F
Precip. -- in
7:01 AM 8:08 PM
Waning Gibbous, 77% visible
Pressure 29.98 in
Visibility 10.0 miles
Clouds Scattered Clouds 4100 ft
Scattered Clouds 5000 ft
Scattered Clouds 7500 ft
Heat Index 98 °F
Dew Point 74 °F
Humidity 60%
Rainfall 0.00 in
Snow Depth Not available.
UV 4 out of 12
Pollen 10.60 out of 12
Air Quality Not available.
Flu Activity Not available.
METAR KOZW 022015Z AUTO 28012G17KT 10SM SCT041 SCT050 SCT075 31/19 A2998 RMK AO2 T03100191
Pressure 29.98 in
Visibility 10.0 miles
Clouds Scattered Clouds 4100 ft
Scattered Clouds 5000 ft
Scattered Clouds 7500 ft
Heat Index 98 °F
Dew Point 74 °F
Humidity 60%
Rainfall 0.00 in
Snow Depth Not available.
UV 4 out of 12
Pollen 10.60 out of 12
Air Quality Not available.
Flu Activity Not available.
METAR KOZW 022015Z AUTO 28012G17KT 10SM SCT041 SCT050 SCT075 31/19 A2998 RMK AO2 T03100191

10-Day Weather Forecast

×

Almanac

Astronomy

Sep. 02, 2015 Rise Set
Actual Time
Civil Twilight
Nautical Twilight
Astronomical Twilight
Moon
Length of Visible Light
Length of Day
Tomorrow will be .
, % of the Moon is Illuminated

Today's Extremes

State Highs State Lows

Community

WunderPhotos

Upload Photos

1,851,804 photos uploaded!

WunderBlogs® & News

Nearby

Air Quality

  Air Quality AQ Index Pollutant
Not available.

Snow Depth

Station Depth Elevation

Earthquake Activity

City Distance Mag. Time & Date
Minimum magnitude displayed is 2.5.

Coastal Water Temperatures

Place Temperature

Stations

Nearby Weather Stations

Station Location Temp. Windchill Dew Point Humidity Wind Precip. Elev Updated Type